Time;durP1;ratioP1;P1;durP2;ratioP2;P2;SDS_P1;SDS_P2;PMS_P1;PMS_P2;Temp;Humidity;BMP_temperature;BMP_pressure;BME280_temperature;BME280_humidity;BME280_pressure;Samples;Min_cycle;Max_cycle;Signal;HPM_P1;HPM_P2
2022/08/04 00:00:14;;;;;;;7.90;2.90;;;25.20;99.90;;;;;;5032477;28;20034;-77
2022/08/04 00:02:52;;;;;;;8.88;3.30;;;25.20;99.90;;;;;;5033305;28;20034;-78
2022/08/04 00:05:45;;;;;;;7.60;2.17;;;25.20;99.90;;;;;;5030410;28;20112;-77
2022/08/04 00:08:23;;;;;;;7.20;2.92;;;25.30;99.90;;;;;;5012794;28;20042;-78
2022/08/04 00:10:53;;;;;;;11.98;3.47;;;25.10;99.90;;;;;;5018672;28;20022;-78
2022/08/04 00:13:25;;;;;;;6.97;2.67;;;25.10;99.90;;;;;;5031437;28;20025;-79
2022/08/04 00:16:05;;;;;;;10.05;2.88;;;24.90;99.90;;;;;;5021535;28;20029;-78
2022/08/04 00:18:39;;;;;;;13.50;2.90;;;24.50;99.90;;;;;;5033123;28;20101;-80
2022/08/04 00:21:08;;;;;;;9.38;3.42;;;24.90;99.90;;;;;;5031964;28;20428;-78
2022/08/04 00:23:35;;;;;;;15.45;3.00;;;24.90;99.90;;;;;;5019321;28;20045;-78
2022/08/04 00:26:01;;;;;;;9.15;3.10;;;25.00;99.90;;;;;;5032069;28;20556;-77
2022/08/04 00:28:28;;;;;;;14.77;3.50;;;24.80;99.90;;;;;;5033239;28;20022;-78
2022/08/04 00:30:54;;;;;;;11.77;3.03;;;24.50;99.90;;;;;;5032841;28;20029;-78
2022/08/04 00:33:21;;;;;;;6.95;2.80;;;24.50;99.90;;;;;;5033121;28;20078;-78
2022/08/04 00:35:48;;;;;;;13.57;3.60;;;24.30;99.90;;;;;;5015250;28;20112;-78
2022/08/04 00:38:18;;;;;;;12.80;3.10;;;24.10;99.90;;;;;;5033291;28;20055;-78
2022/08/04 00:41:07;;;;;;;8.50;3.25;;;24.40;99.90;;;;;;5018813;28;20120;-79
2022/08/04 00:43:41;;;;;;;10.82;3.63;;;24.20;99.90;;;;;;5033021;28;20035;-76
2022/08/04 00:46:34;;;;;;;15.18;4.35;;;24.30;99.90;;;;;;5032629;28;20030;-76
2022/08/04 00:49:16;;;;;;;10.57;4.25;;;24.10;99.90;;;;;;5032757;28;20083;-77
2022/08/04 00:51:48;;;;;;;19.73;4.07;;;24.40;99.90;;;;;;5032767;28;20382;-77
2022/08/04 00:54:45;;;;;;;11.15;4.35;;;24.00;99.90;;;;;;5032770;28;20021;-76
2022/08/04 00:57:35;;;;;;;10.85;4.25;;;24.30;99.90;;;;;;5031538;28;20034;-77
2022/08/04 01:00:08;;;;;;;12.05;3.72;;;24.60;99.90;;;;;;5019676;28;20048;-76
2022/08/04 01:02:59;;;;;;;11.60;4.45;;;24.40;99.90;;;;;;5032633;28;20053;-76
2022/08/04 01:05:30;;;;;;;15.33;4.07;;;24.50;99.90;;;;;;5022251;28;20025;-76
2022/08/04 01:08:20;;;;;;;15.15;4.32;;;23.90;99.90;;;;;;5032740;28;20197;-77
2022/08/04 01:10:54;;;;;;;10.82;4.25;;;23.90;99.90;;;;;;5031361;28;20099;-76
2022/08/04 01:13:35;;;;;;;16.17;4.95;;;23.70;99.90;;;;;;5027761;28;20085;-77
2022/08/04 01:16:09;;;;;;;12.20;4.05;;;23.50;99.90;;;;;;5024131;28;20041;-77
2022/08/04 01:19:33;;;;;;;13.85;4.30;;;23.30;99.90;;;;;;5031463;28;20446;-78
2022/08/04 01:22:27;;;;;;;10.32;3.83;;;23.40;99.90;;;;;;5029971;28;20037;-77
2022/08/04 01:25:03;;;;;;;11.55;4.22;;;23.30;99.90;;;;;;5030907;28;20025;-76
2022/08/04 01:27:40;;;;;;;10.80;4.47;;;22.90;99.90;;;;;;5036639;28;20036;-78
2022/08/04 01:30:06;;;;;;;10.65;4.30;;;22.80;99.90;;;;;;5034925;28;20220;-76
2022/08/04 01:32:45;;;;;;;11.77;4.95;;;22.60;99.90;;;;;;5035194;28;20026;-76
2022/08/04 01:35:27;;;;;;;12.18;4.85;;;22.60;99.90;;;;;;5026978;28;20038;-76
2022/08/04 01:38:30;;;;;;;11.98;4.85;;;22.90;99.90;;;;;;5036432;28;20052;-76
2022/08/04 01:41:08;;;;;;;9.68;5.30;;;22.90;99.90;;;;;;5023034;28;20112;-76
2022/08/04 01:43:41;;;;;;;13.40;4.47;;;22.70;99.90;;;;;;5034997;28;20470;-76
2022/08/04 01:46:10;;;;;;;15.07;4.68;;;22.50;99.90;;;;;;5035866;28;20033;-77
2022/08/04 01:48:38;;;;;;;9.40;4.28;;;22.70;99.90;;;;;;5036270;28;20029;-75
2022/08/04 01:51:06;;;;;;;10.48;4.75;;;22.90;99.90;;;;;;5036272;28;20022;-76
2022/08/04 01:53:34;;;;;;;15.85;4.72;;;23.20;99.90;;;;;;5036083;28;20025;-76
2022/08/04 01:56:02;;;;;;;12.63;4.38;;;23.30;99.90;;;;;;5036000;28;20042;-78
2022/08/04 01:58:30;;;;;;;16.60;4.40;;;23.50;99.90;;;;;;5035981;28;20071;-76
2022/08/04 02:01:09;;;;;;;13.73;4.55;;;23.30;99.90;;;;;;5035567;28;20053;-77
2022/08/04 02:03:39;;;;;;;13.50;3.97;;;23.10;99.90;;;;;;5035882;28;20037;-76
2022/08/04 02:06:16;;;;;;;12.88;3.80;;;23.00;99.90;;;;;;5036060;28;20100;-76
2022/08/04 02:08:42;;;;;;;9.20;3.65;;;23.00;99.90;;;;;;5035825;28;20109;-76
2022/08/04 02:11:07;;;;;;;9.23;3.70;;;22.80;99.90;;;;;;5035669;28;20196;-76
2022/08/04 02:13:48;;;;;;;9.88;3.67;;;22.90;99.90;;;;;;5030058;28;20470;-78
2022/08/04 02:16:20;;;;;;;12.32;3.50;;;23.00;99.90;;;;;;5028161;28;20030;-77
2022/08/04 02:18:58;;;;;;;;;;;22.80;99.90;;;;;;5021402;28;20025;-78
2022/08/04 02:21:25;;;;;;;13.20;4.28;;;22.60;99.90;;;;;;5035599;28;20012;-77
2022/08/04 02:23:59;;;;;;;13.50;3.88;;;22.80;99.90;;;;;;5035429;28;20422;-77
2022/08/04 02:26:28;;;;;;;9.95;3.63;;;22.70;99.90;;;;;;5035618;28;20033;-77
2022/08/04 02:29:03;;;;;;;13.57;3.35;;;22.80;99.90;;;;;;5033600;28;20475;-76
2022/08/04 02:31:40;;;;;;;9.27;3.38;;;22.90;99.90;;;;;;5035516;28;20122;-77
2022/08/04 02:34:26;;;;;;;13.40;3.63;;;22.50;99.90;;;;;;5020662;28;20053;-77
2022/08/04 02:36:53;;;;;;;9.02;3.30;;;22.50;99.90;;;;;;5035191;28;20029;-77
2022/08/04 02:39:20;;;;;;;6.72;2.97;;;22.70;99.90;;;;;;5035293;28;20029;-77
2022/08/04 02:41:48;;;;;;;9.75;3.38;;;23.00;99.90;;;;;;5035283;28;20042;-77
2022/08/04 02:44:21;;;;;;;8.35;2.85;;;22.90;99.90;;;;;;5034609;28;20083;-76
2022/08/04 02:46:50;;;;;;;11.32;2.63;;;22.70;99.90;;;;;;5035251;28;20041;-78
2022/08/04 02:49:18;;;;;;;5.03;2.55;;;22.60;99.90;;;;;;5034962;28;20041;-76
2022/08/04 02:51:51;;;;;;;8.65;2.90;;;22.90;99.90;;;;;;5035073;28;20041;-76
2022/08/04 02:54:20;;;;;;;11.40;3.45;;;23.20;99.90;;;;;;5033501;28;20033;-77
2022/08/04 02:56:50;;;;;;;6.82;2.90;;;23.00;99.90;;;;;;5034731;28;20061;-77
2022/08/04 02:59:19;;;;;;;9.40;3.03;;;22.80;99.90;;;;;;5034525;28;20060;-76
2022/08/04 03:01:44;;;;;;;8.98;2.50;;;23.00;99.90;;;;;;5034780;28;20049;-78
2022/08/04 03:04:13;;;;;;;12.23;2.85;;;23.00;99.90;;;;;;5033355;28;20024;-77
2022/08/04 03:06:41;;;;;;;7.88;2.60;;;22.90;99.90;;;;;;5034801;28;20059;-78
2022/08/04 03:09:26;;;;;;;8.57;2.40;;;23.00;99.90;;;;;;5034709;28;20041;-76
2022/08/04 03:12:09;;;;;;;9.50;2.17;;;22.70;99.90;;;;;;5034461;28;20152;-76
2022/08/04 03:15:09;;;;;;;6.07;2.38;;;22.40;99.90;;;;;;5019468;28;20034;-76
2022/08/04 03:17:46;;;;;;;8.40;2.90;;;22.40;99.90;;;;;;5025204;28;20035;-76
2022/08/04 03:20:40;;;;;;;6.38;2.45;;;22.30;99.90;;;;;;5033198;28;20022;-77
2022/08/04 03:23:20;;;;;;;6.22;2.72;;;22.40;99.90;;;;;;5034376;28;20163;-77
2022/08/04 03:26:17;;;;;;;18.08;2.97;;;22.20;99.90;;;;;;5022334;28;20501;-77
2022/08/04 03:28:52;;;;;;;9.80;2.42;;;22.00;99.90;;;;;;5034100;28;20033;-76
2022/08/04 03:31:33;;;;;;;9.05;2.70;;;21.80;99.90;;;;;;5034457;28;20117;-75
2022/08/04 03:34:19;;;;;;;13.38;2.90;;;21.80;99.90;;;;;;5032836;28;20034;-77
2022/08/04 03:37:12;;;;;;;8.27;2.72;;;21.80;99.90;;;;;;5033899;28;20045;-76
2022/08/04 03:39:57;;;;;;;7.35;3.08;;;21.80;99.90;;;;;;5032825;28;20470;-77
2022/08/04 03:42:34;;;;;;;13.07;3.00;;;21.70;99.90;;;;;;5033497;28;20048;-75
2022/08/04 03:45:44;;;;;;;9.15;2.60;;;21.70;99.90;;;;;;5032963;28;20030;-76
2022/08/04 03:48:25;;;;;;;7.85;2.80;;;21.70;99.90;;;;;;5034057;28;20492;-79
2022/08/04 03:54:38;;;;;;;6.82;2.42;;;21.80;99.90;;;;;;5031567;28;20474;-76
2022/08/04 03:57:51;;;;;;;11.65;2.70;;;22.10;99.90;;;;;;5027530;28;20034;-76
2022/08/04 04:00:19;;;;;;;10.68;2.83;;;21.90;99.90;;;;;;5028909;28;20060;-79
2022/08/04 04:03:11;;;;;;;11.00;3.28;;;22.00;99.90;;;;;;5032894;28;20045;-79
2022/08/04 04:06:07;;;;;;;7.95;2.85;;;21.70;99.90;;;;;;5033633;28;20385;-79
2022/08/04 04:08:55;;;;;;;10.52;2.88;;;21.60;99.90;;;;;;5023974;28;20116;-77
2022/08/04 04:11:24;;;;;;;13.82;3.10;;;21.90;99.90;;;;;;5031973;28;20048;-77
2022/08/04 04:14:27;;;;;;;6.72;3.05;;;22.20;99.90;;;;;;5025909;28;20026;-78
2022/08/04 04:17:32;;;;;;;14.98;3.15;;;22.40;99.90;;;;;;5032002;28;20017;-76
2022/08/04 04:20:19;;;;;;;8.75;3.03;;;22.50;99.90;;;;;;5004322;28;20034;-77
2022/08/04 04:23:23;;;;;;;11.45;3.25;;;22.30;99.90;;;;;;5032026;28;20103;-77
2022/08/04 04:25:56;;;;;;;11.48;4.68;;;22.40;99.90;;;;;;5021330;28;20025;-76
2022/08/04 04:28:44;;;;;;;16.20;4.72;;;22.30;99.90;;;;;;5031957;28;20039;-78
2022/08/04 04:31:47;;;;;;;13.57;4.05;;;22.20;99.90;;;;;;5033075;28;20091;-76
2022/08/04 04:34:33;;;;;;;6.97;3.83;;;22.50;99.90;;;;;;5020923;28;20048;-77
2022/08/04 04:37:36;;;;;;;10.50;4.75;;;22.40;99.90;;;;;;5032865;28;20045;-76
2022/08/04 04:40:25;;;;;;;11.45;3.22;;;22.70;99.90;;;;;;5031676;28;20646;-77
2022/08/04 04:43:19;;;;;;;15.95;3.85;;;22.80;99.90;;;;;;5021776;28;20160;-76
2022/08/04 04:45:47;;;;;;;13.57;2.92;;;22.50;99.90;;;;;;5032812;28;20453;-76
2022/08/04 04:48:32;;;;;;;14.93;3.42;;;22.10;99.90;;;;;;5031863;28;20025;-76
2022/08/04 04:50:57;;;;;;;10.02;3.63;;;22.40;99.90;;;;;;5032690;28;20025;-77
2022/08/04 04:53:26;;;;;;;12.98;3.67;;;22.20;99.90;;;;;;5032638;28;20101;-76
2022/08/04 04:56:26;;;;;;;10.38;3.03;;;21.90;99.90;;;;;;5032622;28;20030;-76
2022/08/04 04:58:54;;;;;;;17.27;3.05;;;21.80;99.90;;;;;;5019147;28;20037;-78
2022/08/04 05:01:38;;;;;;;6.80;2.58;;;22.00;99.90;;;;;;5031368;28;20049;-76
2022/08/04 05:04:16;;;;;;;18.40;3.70;;;22.00;99.90;;;;;;5031483;28;20432;-76
2022/08/04 05:07:10;;;;;;;17.35;3.45;;;22.10;99.90;;;;;;5032106;28;20057;-76
2022/08/04 05:09:53;;;;;;;8.70;2.83;;;22.10;99.90;;;;;;5032784;28;20505;-75
2022/08/04 05:12:31;;;;;;;12.15;3.45;;;22.20;99.90;;;;;;5032530;28;20037;-77
2022/08/04 05:15:00;;;;;;;12.77;3.95;;;22.40;99.90;;;;;;5015630;28;20489;-78
2022/08/04 05:17:34;;;;;;;5.47;2.80;;;22.30;99.90;;;;;;5032641;28;20124;-77
2022/08/04 05:20:05;;;;;;;13.55;3.22;;;22.30;99.90;;;;;;5032536;28;20057;-76
2022/08/04 05:22:49;;;;;;;13.90;2.85;;;22.40;99.90;;;;;;5032049;28;20398;-76
2022/08/04 05:25:22;;;;;;;8.20;2.83;;;22.00;99.90;;;;;;5032518;28;20029;-76
2022/08/04 05:28:11;;;;;;;9.57;2.50;;;22.00;99.90;;;;;;5031204;28;20025;-77
2022/08/04 05:30:50;;;;;;;7.63;2.92;;;21.90;99.90;;;;;;5032263;28;20029;-76
2022/08/04 05:33:26;;;;;;;13.90;3.03;;;21.70;99.90;;;;;;5032604;28;20030;-76
2022/08/04 05:35:57;;;;;;;10.50;3.47;;;21.70;99.90;;;;;;5032468;28;20018;-77
2022/08/04 05:38:28;;;;;;;15.88;3.90;;;21.70;99.90;;;;;;5032209;28;20034;-77
2022/08/04 05:41:14;;;;;;;14.98;3.10;;;21.70;99.90;;;;;;5026719;28;20109;-78
2022/08/04 05:43:43;;;;;;;14.98;3.30;;;21.60;99.90;;;;;;5021013;28;20544;-77
2022/08/04 05:46:11;;;;;;;14.25;3.20;;;21.60;99.90;;;;;;5028726;28;20061;-77
2022/08/04 05:48:37;;;;;;;19.38;3.63;;;21.50;99.90;;;;;;5026471;28;20064;-75
2022/08/04 05:51:04;;;;;;;10.93;3.58;;;21.50;99.90;;;;;;5017419;28;20034;-76
2022/08/04 05:53:31;;;;;;;19.90;4.93;;;21.30;99.90;;;;;;5013395;28;20377;-76
2022/08/04 05:55:58;;;;;;;15.35;5.40;;;21.20;99.90;;;;;;5020817;28;20021;-77
2022/08/04 05:58:25;;;;;;;33.17;7.53;;;21.20;99.90;;;;;;5012483;28;20046;-78
2022/08/04 06:00:53;;;;;;;17.33;8.65;;;21.40;99.90;;;;;;5020004;28;20040;-76
2022/08/04 06:03:20;;;;;;;22.10;11.52;;;21.20;99.90;;;;;;5021499;28;20474;-76
2022/08/04 06:05:47;;;;;;;28.70;13.95;;;20.90;99.90;;;;;;5020693;28;20075;-77
2022/08/04 06:08:13;;;;;;;25.85;13.80;;;20.70;99.90;;;;;;5019881;28;20048;-77
2022/08/04 06:10:41;;;;;;;30.10;14.30;;;20.70;99.90;;;;;;5028227;28;20044;-76
2022/08/04 06:13:10;;;;;;;34.25;15.90;;;20.70;99.90;;;;;;5025138;28;20029;-77
2022/08/04 06:15:39;;;;;;;24.63;15.90;;;20.70;99.90;;;;;;5031845;28;20038;-76
2022/08/04 06:18:08;;;;;;;29.40;15.80;;;20.60;99.90;;;;;;5034620;28;20022;-77
2022/08/04 06:20:35;;;;;;;31.90;16.05;;;20.90;99.90;;;;;;5034508;28;20083;-77
2022/08/04 06:23:10;;;;;;;34.13;17.75;;;21.00;99.90;;;;;;5034601;28;20112;-78
2022/08/04 06:25:50;;;;;;;25.75;16.33;;;21.30;99.90;;;;;;5030515;28;20096;-77
2022/08/04 06:28:18;;;;;;;28.67;15.63;;;21.50;99.90;;;;;;5034442;28;20068;-76
2022/08/04 06:30:46;;;;;;;24.33;14.65;;;21.80;99.90;;;;;;5025728;28;20017;-76
2022/08/04 06:33:25;;;;;;;20.13;13.85;;;22.00;99.90;;;;;;5023737;28;20095;-78
2022/08/04 06:35:54;;;;;;;24.73;12.27;;;21.90;99.90;;;;;;5016165;28;20467;-77
2022/08/04 06:38:24;;;;;;;19.60;12.15;;;21.80;99.90;;;;;;5025650;28;20029;-77
2022/08/04 06:40:52;;;;;;;20.27;10.70;;;21.80;99.90;;;;;;5025206;28;20421;-76
2022/08/04 06:43:18;;;;;;;17.95;10.38;;;22.00;99.90;;;;;;5016840;28;20021;-77
2022/08/04 06:45:45;;;;;;;14.95;9.85;;;22.20;99.90;;;;;;5017339;28;20022;-78
2022/08/04 06:48:13;;;;;;;16.00;9.32;;;22.20;99.90;;;;;;5025481;28;20078;-77
2022/08/04 06:50:40;;;;;;;17.95;9.23;;;22.00;99.90;;;;;;5025748;28;20113;-77
2022/08/04 06:53:06;;;;;;;13.55;8.30;;;22.10;99.90;;;;;;5025838;28;20034;-77
2022/08/04 06:55:34;;;;;;;15.77;8.30;;;22.10;99.90;;;;;;5023888;28;20071;-77
2022/08/04 06:58:01;;;;;;;12.85;7.43;;;22.30;99.90;;;;;;5016394;28;20092;-78
2022/08/04 07:00:28;;;;;;;15.27;7.55;;;22.70;99.90;;;;;;5024226;28;20025;-77
2022/08/04 07:02:54;;;;;;;12.85;7.43;;;22.60;99.90;;;;;;5026172;28;20046;-77
2022/08/04 07:05:21;;;;;;;13.23;7.78;;;22.80;99.90;;;;;;5026188;28;20032;-77
2022/08/04 07:07:47;;;;;;;11.13;6.15;;;22.60;99.90;;;;;;5024323;28;20397;-76
2022/08/04 07:10:14;;;;;;;12.48;6.88;;;22.40;99.90;;;;;;5023211;28;20029;-77
2022/08/04 07:12:40;;;;;;;15.55;6.35;;;22.40;99.90;;;;;;5025559;28;20086;-77
2022/08/04 07:15:07;;;;;;;13.07;5.72;;;22.50;99.90;;;;;;5018314;28;20053;-76
2022/08/04 07:17:35;;;;;;;18.95;6.18;;;22.50;99.90;;;;;;5032407;28;20108;-77
2022/08/04 07:20:02;;;;;;;14.10;6.13;;;22.60;99.90;;;;;;5032022;28;20021;-77
2022/08/04 07:22:29;;;;;;;11.50;5.57;;;22.70;99.90;;;;;;5027152;28;20069;-77
2022/08/04 07:24:58;;;;;;;12.52;6.25;;;22.70;99.90;;;;;;5020808;28;20029;-77
2022/08/04 07:27:25;;;;;;;17.40;5.55;;;22.60;99.90;;;;;;5030661;28;20111;-77
2022/08/04 07:29:52;;;;;;;16.58;5.93;;;22.60;99.90;;;;;;5020439;28;20355;-78
2022/08/04 07:32:22;;;;;;;10.07;4.97;;;22.60;99.90;;;;;;5013814;28;20450;-84
2022/08/04 07:34:51;;;;;;;8.18;5.10;;;22.70;99.90;;;;;;5014159;28;20030;-81
2022/08/04 07:37:17;;;;;;;10.30;4.47;;;22.90;99.90;;;;;;5012783;28;20374;-81
2022/08/04 07:39:43;;;;;;;12.73;4.47;;;22.80;99.90;;;;;;5014193;28;20065;-81
2022/08/04 07:42:10;;;;;;;8.55;3.58;;;23.00;99.90;;;;;;5014109;28;20069;-81
2022/08/04 07:44:36;;;;;;;11.45;3.90;;;23.40;99.90;;;;;;5014039;28;20018;-81
2022/08/04 07:47:05;;;;;;;9.10;3.63;;;23.40;99.90;;;;;;5013848;28;20033;-82
2022/08/04 07:49:31;;;;;;;8.48;4.15;;;23.60;99.90;;;;;;5013817;28;20014;-81
2022/08/04 07:51:59;;;;;;;9.05;4.15;;;23.40;99.90;;;;;;5014173;28;20532;-81
2022/08/04 07:54:25;;;;;;;9.45;4.10;;;23.50;99.90;;;;;;5012554;28;20022;-81
2022/08/04 07:56:52;;;;;;;7.68;3.53;;;23.50;99.90;;;;;;5012825;28;20179;-81
2022/08/04 07:59:18;;;;;;;8.93;3.45;;;23.50;99.90;;;;;;5013627;28;20032;-81
2022/08/04 08:01:45;;;;;;;9.07;3.53;;;23.80;99.90;;;;;;5013243;28;20026;-81
2022/08/04 08:04:12;;;;;;;11.40;3.90;;;23.80;99.90;;;;;;5013695;28;20118;-81
2022/08/04 08:06:39;;;;;;;8.05;3.65;;;23.80;99.90;;;;;;5014122;28;20049;-81
2022/08/04 08:09:17;;;;;;;10.05;3.72;;;23.70;99.90;;;;;;5013691;28;20189;-82
2022/08/04 08:11:48;;;;;;;10.90;4.30;;;24.00;99.90;;;;;;5013637;28;20088;-81
2022/08/04 08:14:15;;;;;;;10.90;4.03;;;24.10;99.90;;;;;;5013861;28;20026;-81
2022/08/04 08:16:41;;;;;;;14.10;4.00;;;23.90;99.90;;;;;;5030226;28;20779;-81
2022/08/04 08:19:07;;;;;;;9.48;3.67;;;23.70;99.90;;;;;;5033488;28;20142;-81
2022/08/04 08:21:33;;;;;;;7.78;3.33;;;23.80;99.90;;;;;;5033179;28;20120;-81
2022/08/04 08:23:59;;;;;;;8.27;3.13;;;23.60;99.90;;;;;;5033421;28;20033;-81
2022/08/04 08:26:25;;;;;;;6.07;3.50;;;23.90;99.90;;;;;;5033323;28;20029;-81
2022/08/04 08:28:52;;;;;;;8.02;3.92;;;24.30;99.90;;;;;;5033048;28;20013;-81
2022/08/04 08:31:18;;;;;;;6.32;3.50;;;24.10;99.90;;;;;;5025597;28;20378;-81
2022/08/04 08:33:44;;;;;;;6.13;3.22;;;23.90;99.90;;;;;;5029871;28;20025;-81
2022/08/04 08:36:26;;;;;;;6.93;3.10;;;23.50;99.90;;;;;;5033074;28;20417;-81
2022/08/04 08:39:06;;;;;;;12.90;4.28;;;23.30;99.90;;;;;;5033023;28;20177;-81
2022/08/04 08:42:23;;;;;;;7.47;3.97;;;23.20;99.90;;;;;;5032852;28;20072;-81
2022/08/04 08:44:52;;;;;;;8.80;3.65;;;23.40;99.90;;;;;;5023471;28;20065;-82
2022/08/04 08:47:53;;;;;;;7.43;3.58;;;23.30;99.90;;;;;;5031833;28;20048;-82
2022/08/04 08:50:40;;;;;;;8.20;3.78;;;23.10;99.90;;;;;;5032870;28;20071;-81
2022/08/04 08:53:37;;;;;;;12.45;4.15;;;22.90;99.90;;;;;;5017496;28;20368;-82
2022/08/04 08:56:12;;;;;;;11.00;3.63;;;23.00;99.90;;;;;;5031878;28;20458;-82
2022/08/04 08:58:44;;;;;;;5.70;3.78;;;22.80;99.90;;;;;;5032859;28;20025;-82
2022/08/04 09:01:37;;;;;;;8.88;3.85;;;22.70;99.90;;;;;;5032101;28;20397;-81
2022/08/04 09:04:37;;;;;;;10.02;4.38;;;22.70;99.90;;;;;;5032808;28;20104;-82
2022/08/04 09:07:57;;;;;;;10.63;4.47;;;23.10;99.90;;;;;;5032672;28;20065;-82
2022/08/04 09:10:39;;;;;;;11.73;3.95;;;23.40;99.90;;;;;;5018645;28;20076;-82
2022/08/04 09:13:23;;;;;;;11.57;3.65;;;23.40;99.90;;;;;;5017732;28;20041;-82
2022/08/04 09:16:01;;;;;;;10.85;3.70;;;23.50;99.90;;;;;;5022407;28;20087;-82
2022/08/04 09:18:36;;;;;;;6.50;3.10;;;23.30;99.90;;;;;;5032627;28;20033;-82
2022/08/04 09:21:21;;;;;;;9.55;3.40;;;23.10;99.90;;;;;;5032469;28;20155;-81
2022/08/04 09:24:14;;;;;;;6.15;3.90;;;23.30;99.90;;;;;;5032593;28;20072;-82
2022/08/04 09:26:49;;;;;;;7.28;3.63;;;23.50;99.90;;;;;;5032416;28;20568;-82
2022/08/04 09:29:29;;;;;;;8.45;3.30;;;23.60;99.90;;;;;;5032430;28;20038;-82
2022/08/04 09:31:59;;;;;;;8.13;3.95;;;23.30;99.90;;;;;;5031171;28;20037;-82
2022/08/04 09:34:37;;;;;;;13.23;4.13;;;23.40;99.90;;;;;;5032566;28;20021;-82
2022/08/04 09:37:40;;;;;;;9.95;3.80;;;23.10;99.90;;;;;;5032234;28;20718;-84
2022/08/04 09:40:10;;;;;;;11.23;3.85;;;22.80;99.90;;;;;;5032566;28;20026;-81
2022/08/04 09:42:42;;;;;;;11.57;3.95;;;22.70;99.90;;;;;;5032019;28;20029;-81
2022/08/04 09:45:26;;;;;;;13.43;4.85;;;22.70;99.90;;;;;;5034790;28;20041;-83
2022/08/04 09:48:00;;;;;;;10.30;4.35;;;23.10;99.90;;;;;;5024096;28;20033;-81
2022/08/04 09:50:34;;;;;;;9.02;4.28;;;23.40;99.90;;;;;;5036195;28;20107;-81
2022/08/04 09:53:27;;;;;;;7.10;3.65;;;23.30;99.90;;;;;;5036070;28;20026;-82
2022/08/04 09:56:11;;;;;;;13.45;3.70;;;23.10;99.90;;;;;;5036004;28;20381;-83
2022/08/04 09:58:44;;;;;;;13.77;3.80;;;23.40;99.90;;;;;;5034328;28;20030;-82
2022/08/04 10:01:15;;;;;;;9.65;4.28;;;23.30;99.90;;;;;;5035626;28;20044;-82
2022/08/04 10:03:44;;;;;;;;;;;23.40;99.90;;;;;;5036294;28;20033;-81
2022/08/04 10:06:10;;;;;;;15.32;3.92;;;23.50;99.90;;;;;;5034746;28;19912;-83
2022/08/04 10:09:11;;;;;;;10.25;3.63;;;23.90;99.90;;;;;;5035939;28;20029;-83
2022/08/04 10:11:56;;;;;;;10.57;4.57;;;23.90;99.90;;;;;;5035231;28;20065;-81
2022/08/04 10:14:40;;;;;;;9.95;4.15;;;24.20;99.90;;;;;;5023859;28;20037;-83
2022/08/04 10:17:06;;;;;;;10.75;4.07;;;24.00;99.90;;;;;;5005323;28;20030;-82
2022/08/04 10:19:36;;;;;;;15.50;4.40;;;23.70;99.90;;;;;;5034634;28;20032;-83
2022/08/04 10:22:20;;;;;;;11.33;4.10;;;23.80;99.90;;;;;;5035306;28;20041;-82
2022/08/04 10:25:11;;;;;;;8.95;4.53;;;23.90;99.90;;;;;;5035402;28;20026;-83
2022/08/04 10:27:47;;;;;;;8.90;3.78;;;24.40;99.90;;;;;;5019756;28;20501;-83
2022/08/04 10:30:17;;;;;;;8.68;4.00;;;25.20;99.90;;;;;;5023535;28;20029;-82
2022/08/04 10:33:08;;;;;;;9.48;4.47;;;25.50;99.90;;;;;;5024871;28;20037;-82
2022/08/04 10:35:47;;;;;;;8.35;4.57;;;25.50;99.90;;;;;;5021637;28;20079;-83
2022/08/04 10:38:36;;;;;;;11.00;3.90;;;26.00;99.90;;;;;;5029212;28;20061;-82
2022/08/04 10:41:23;;;;;;;8.00;3.35;;;26.30;99.90;;;;;;5022550;28;20442;-83
2022/08/04 10:44:02;;;;;;;7.57;2.83;;;26.70;99.90;;;;;;5034916;28;20112;-82
2022/08/04 10:46:45;;;;;;;10.23;3.78;;;27.20;99.90;;;;;;5032676;28;20037;-82
2022/08/04 10:49:36;;;;;;;6.78;2.42;;;27.20;99.90;;;;;;5032470;28;20025;-82
2022/08/04 10:52:18;;;;;;;8.27;3.08;;;27.50;99.90;;;;;;5033567;28;20032;-82
2022/08/04 10:54:53;;;;;;;7.18;2.05;;;28.00;99.90;;;;;;5035023;28;20026;-82
2022/08/04 10:57:34;;;;;;;7.68;2.22;;;27.80;99.90;;;;;;5033892;28;20084;-82
2022/08/04 11:00:14;;;;;;;5.15;2.22;;;27.60;99.90;;;;;;5016850;28;20047;-82
2022/08/04 11:03:07;;;;;;;6.25;1.95;;;27.80;99.90;;;;;;5034775;28;20069;-82
2022/08/04 11:05:54;;;;;;;8.65;2.10;;;28.10;99.90;;;;;;5029197;28;20451;-82
2022/08/04 11:08:24;;;;;;;7.38;2.22;;;28.30;99.90;;;;;;5023209;28;20029;-82
2022/08/04 11:11:08;;;;;;;5.38;2.30;;;27.70;99.90;;;;;;5034267;28;20408;-82
2022/08/04 11:14:00;;;;;;;8.45;2.20;;;27.80;99.90;;;;;;5029080;28;20398;-83
2022/08/04 11:16:29;;;;;;;7.68;2.00;;;28.40;99.90;;;;;;5025771;28;20057;-82
2022/08/04 11:18:57;;;;;;;6.95;2.10;;;28.50;99.90;;;;;;5034465;28;20025;-82
2022/08/04 11:21:32;;;;;;;7.22;2.22;;;28.50;99.90;;;;;;5034694;28;20106;-81
2022/08/04 11:24:16;;;;;;;8.20;1.63;;;28.70;99.90;;;;;;5034456;28;20060;-82
2022/08/04 11:26:52;;;;;;;5.97;2.13;;;29.30;99.90;;;;;;5034144;28;20350;-76
2022/08/04 11:29:26;;;;;;;11.23;2.45;;;29.20;99.50;;;;;;5033014;28;20123;-77
2022/08/04 11:31:57;;;;;;;7.10;2.15;;;29.30;99.90;;;;;;5030564;28;20378;-76
2022/08/04 11:34:24;;;;;;;9.20;2.30;;;28.80;99.10;;;;;;5021808;28;20042;-76
2022/08/04 11:36:52;;;;;;;5.47;1.95;;;29.10;99.70;;;;;;5021307;28;20159;-76
2022/08/04 11:39:33;;;;;;;5.95;1.88;;;29.00;99.90;;;;;;5016682;28;20112;-75
2022/08/04 11:42:10;;;;;;;4.30;1.65;;;29.50;98.40;;;;;;5030338;28;20048;-75
2022/08/04 11:44:48;;;;;;;6.53;2.25;;;29.10;99.50;;;;;;5022902;28;20025;-76
2022/08/04 11:47:41;;;;;;;6.07;2.03;;;28.70;99.90;;;;;;5022677;28;20108;-76
2022/08/04 11:50:25;;;;;;;10.95;2.35;;;29.10;99.30;;;;;;5023254;28;20037;-79
2022/08/04 11:52:53;;;;;;;8.13;2.03;;;29.00;99.20;;;;;;5028978;28;20109;-76
2022/08/04 11:55:21;;;;;;;7.80;2.00;;;29.20;97.90;;;;;;5016739;28;20029;-74
2022/08/04 11:57:48;;;;;;;6.40;1.75;;;29.50;98.90;;;;;;5022805;28;20026;-75
2022/08/04 12:00:18;;;;;;;5.28;1.70;;;29.70;97.60;;;;;;5023757;28;20060;-76
2022/08/04 12:02:58;;;;;;;5.72;1.92;;;30.10;97.10;;;;;;5025489;28;20049;-75
2022/08/04 12:05:30;;;;;;;6.53;2.30;;;29.60;97.80;;;;;;5017543;28;20032;-76
2022/08/04 12:08:05;;;;;;;6.60;2.50;;;29.80;96.90;;;;;;5023432;28;20485;-76
2022/08/04 12:10:58;;;;;;;9.57;2.38;;;30.40;97.60;;;;;;5017832;28;20478;-75
2022/08/04 12:13:33;;;;;;;7.60;2.38;;;31.30;97.10;;;;;;5012030;28;20033;-76
2022/08/04 12:16:19;;;;;;;8.18;2.58;;;31.70;95.80;;;;;;5024091;28;20030;-76
2022/08/04 12:18:52;;;;;;;5.22;2.22;;;30.70;95.80;;;;;;5028188;28;20112;-76
2022/08/04 12:21:22;;;;;;;8.57;2.28;;;30.10;96.80;;;;;;5031304;28;20033;-75
2022/08/04 12:23:51;;;;;;;14.32;2.33;;;29.90;97.40;;;;;;5032350;28;20025;-76
2022/08/04 12:26:25;;;;;;;7.63;2.20;;;30.70;96.60;;;;;;5031918;28;20075;-75
2022/08/04 12:28:59;;;;;;;7.93;2.40;;;31.40;96.30;;;;;;5032498;28;20025;-76
2022/08/04 12:31:35;;;;;;;6.93;2.58;;;31.80;95.60;;;;;;5032181;28;20029;-75
2022/08/04 12:34:13;;;;;;;7.55;2.35;;;32.00;94.90;;;;;;5033022;28;20037;-75
2022/08/04 12:36:46;;;;;;;10.48;2.70;;;31.30;94.80;;;;;;5032743;28;20112;-76
2022/08/04 12:39:18;;;;;;;9.15;2.30;;;30.90;95.30;;;;;;5029869;28;20363;-76
2022/08/04 12:42:15;;;;;;;7.35;2.60;;;31.10;95.20;;;;;;5022773;28;20030;-76
2022/08/04 12:44:43;;;;;;;6.38;2.55;;;31.60;94.80;;;;;;5016098;28;20029;-75
2022/08/04 12:47:12;;;;;;;8.18;2.42;;;31.40;94.50;;;;;;5023170;28;20021;-76
2022/08/04 12:49:41;;;;;;;9.45;2.40;;;32.60;94.30;;;;;;5022616;28;20083;-76
2022/08/04 12:52:07;;;;;;;8.10;2.85;;;33.10;93.30;;;;;;5015552;28;20041;-75
2022/08/04 12:54:36;;;;;;;11.45;2.10;;;31.40;93.70;;;;;;5018678;28;20029;-75
2022/08/04 12:57:05;;;;;;;8.98;2.22;;;32.10;94.50;;;;;;5019765;28;20038;-76
2022/08/04 12:59:38;;;;;;;12.30;2.78;;;32.60;93.50;;;;;;5020564;28;20230;-76
2022/08/04 13:02:07;;;;;;;9.73;2.55;;;32.60;93.20;;;;;;5013872;28;20116;-76
2022/08/04 13:04:37;;;;;;;5.78;1.50;;;32.10;92.70;;;;;;5011214;28;20386;-75
2022/08/04 13:07:09;;;;;;;4.47;1.77;;;32.30;93.90;;;;;;5017975;28;20809;-75
2022/08/04 13:09:36;;;;;;;8.60;2.10;;;32.50;93.10;;;;;;5030410;28;20033;-75
2022/08/04 13:12:11;;;;;;;4.63;1.80;;;33.60;92.60;;;;;;5026852;28;20381;-75
2022/08/04 13:14:39;;;;;;;5.30;1.90;;;32.90;92.10;;;;;;5015300;28;20033;-75
2022/08/04 13:17:05;;;;;;;4.95;1.70;;;31.50;93.20;;;;;;5019968;28;20394;-75
2022/08/04 13:19:32;;;;;;;5.18;1.88;;;30.80;93.90;;;;;;5031975;28;20017;-76
2022/08/04 13:21:59;;;;;;;6.45;2.00;;;30.20;94.80;;;;;;5033948;28;20029;-76
2022/08/04 13:24:27;;;;;;;5.10;1.60;;;30.60;94.70;;;;;;5035604;28;20042;-74
2022/08/04 13:26:58;;;;;;;6.95;2.00;;;30.50;94.70;;;;;;5032733;28;20473;-76
2022/08/04 13:29:32;;;;;;;5.85;1.73;;;31.40;94.40;;;;;;5035527;28;20428;-76